West Essex Park Conservancy

Temperature/Humidity/Waterlevel monitor

12-25 16:13,   39, 90, 17.1 123  48105
12-25 15:53,   40, 90, 16.5 123  47167
12-25 15:31,   41, 91, 16.5 123  46162
12-25 15:11,   42, 91, 16.3 123  45226
12-25 14:50,   43, 92, 16.3 123  44241
12-25 14:29,   44, 92, 14.3 123  43258
12-25 14:08,   45, 92, 13.7 123  42255
12-25 13:47,   46, 92, 12.5 123  41298
12-25 13:27,   47, 93, 12.9 123  40342
12-25 12:46,   49, 93, 10.9 123  38427
12-25 12:26,   50, 93, 10.1 123  37493
12-25 12:05,   52, 93,  9.1 123  36516
12-25 11:43,   52, 93,  8.1 123  35485
12-25 11:21,   52, 93,  7.5 123  34481
12-25 11:01,   53, 93,  6.7 123  33548
12-25 10:40,   53, 93,  6.9 123  32542
12-25 10:19,   53, 93,  6.9 123  31585
12-25 09:59,   53, 93,  6.5 123  30629
12-25 09:38,   53, 93,  6.5 123  29670
12-25 09:18,   53, 93,  5.9 123  28712
12-25 08:57,   53, 93,  6.5 123  27755
12-25 08:37,   53, 93,  6.5 123  26821
12-25 08:16,   54, 93,  6.3 123  25837
12-25 07:55,   54, 93,  6.7 123  24856
12-25 07:34,   55, 93,  7.7 123  23852
12-25 07:13,   55, 93,  8.9 123  22916
12-25 06:52,   55, 93, 10.1 123  21911
12-25 06:32,   55, 93, 10.7 123  20975
12-25 06:11,   55, 93, 12.5 123  19993
12-25 05:49,   56, 93, 13.1 123  18989
12-25 05:29,   56, 93, 13.7 123  18034
12-25 05:08,   56, 93, 14.3 123  17076
12-25 04:48,   57, 93, 13.5 123  16140
12-25 04:27,   57, 92, 13.1 123  15135
12-25 04:07,   59, 93, 12.9 122  14199
12-25 03:45,   60, 93, 11.9 119  13195
12-25 03:25,   60, 93, 10.9 113  12241
12-24 15:40,   57, 74,  0.0  92  44884
12-24 15:20,   57, 73,  0.0  91  43927
12-24 15:00,   57, 72,  0.0  89  42992
03-07 10:30     F   %    Z  mov    seq 

Go to the West Essex Park Conservancy birding log .